Airfield :
LOGIN :

Register | Disclaimer

   EN    FR    IT 

 










Legend :    VFR   Marginal VFR   IFR   Intensive IFR   Very Intensive IFR
Visi :
Ceiling :
>= 8 km
>= 3000ft
5 to 8 km
1000 to 3000 ft
1500m to 5 km
500 to 1000 ft
800 to 1500m
200 to 500 ft
< 800m
< 200 ft
Symbols :   Thunderstorms  Fog  Heavy snow  Heavy precipitations  Wind > 20 kt
SIGMETs :     Misc.  Thunderstorms  Icing  Turbulence  Mountain Waves  Volcanic Ashes






- Airport Elevation : 1106 ft


LFSO - Nancy / Ochey

CURRENT METAR :
  • 221200Z AUTO 02006KT 340V060 9999 FEW008 BKN068 14/09 Q1023 TEMPO BKN012

EXPIRED METARs :
  • 221130Z AUTO 36006KT 330V030 CAVOK 14/09 Q1024 TEMPO BKN012
  • 221100Z AUTO 01005KT 330V030 9999 FEW015 BKN070 BKN080 13/09 Q1024 TEMPO BKN012
  • 221030Z AUTO 02005KT 350V060 9999 FEW013 OVC076 12/09 Q1025 TEMPO BKN012
  • 221000Z AUTO 05005KT 020V080 CAVOK 12/09 Q1025 TEMPO BKN012
  • 220930Z AUTO 36006KT 330V040 CAVOK 11/09 Q1025 TEMPO BKN012

TAF TAF LFSO
Valid from the 22 at 09:00 until the 23 at 09:00 UTC


220800Z 2209/2309 VRB02KT CAVOK
TEMPO 2210/2219 BKN012
BECMG 2221/2224 BKN008
TEMPO 2300/2307 BKN004



MET'MAP, your aeronautical weather chart ! - Copyright ORBIFLY December 2007 - Disclaimer

ORBIFLY MET'MAP TEAM :

Programming & Development : Alexandra Zaïnal
Concept & Development : Baudouin d'Aumeries
Co-Development & Prog : Marc-Olivier Méhu
Technical & hardware support : Manuel Goepfert

Contact : metmap@orbifly.com




SOURCES & CREDITS :

   NOAA